Terminal Aerodrome Forecast
Issued by NWS

Home | Current Version | Previous Version | Graphics & Text | Print | Product List | Glossary On
Versions: 1 2 3 4 5 6 7 8 9 10 11 12 13
326
FTUS42 KMHX 261142 CCA
TAFOAJ
TAF COR
KOAJ 261142Z 2612/2712 17006KT P6SM BKN050
     FM261700 16007KT P6SM SCT045
     FM270800 VRB03KT 5SM BR SCT025
      AMD LTD TO CLD VIS AND WIND=

USA.gov is the U.S. government's official web portal to all federal, state and local government web resources and services.